Time;durP1;ratioP1;P1;durP2;ratioP2;P2;SDS_P1;SDS_P2;PMS_P1;PMS_P2;Temp;Humidity;BMP_temperature;BMP_pressure;BME280_temperature;BME280_humidity;BME280_pressure;Samples;Min_cycle;Max_cycle;Signal;HPM_P1;HPM_P2
2022/05/22 00:01:57;;;;;;;;;8.00;8.00;;;;;19.19;60.27;101595.91;5033830;28;49769;-63
2022/05/22 00:04:23;;;;;;;;;7.75;6.00;;;;;19.13;60.65;101605.69;5033206;28;50694;-63
2022/05/22 00:06:49;;;;;;;;;7.25;6.00;;;;;19.07;60.99;101605.69;5033155;28;49544;-64
2022/05/22 00:09:14;;;;;;;;;7.75;7.00;;;;;19.02;61.30;101601.28;5033383;28;49755;-64
2022/05/22 00:11:40;;;;;;;;;3.25;3.00;;;;;18.99;60.75;101606.56;5032407;28;49979;-63
2022/05/22 00:14:05;;;;;;;;;9.50;6.00;;;;;18.95;61.91;101605.69;5032986;28;49630;-63
2022/05/22 00:16:37;;;;;;;;;6.50;6.25;;;;;18.95;62.09;101602.16;5033401;28;49662;-63
2022/05/22 00:19:04;;;;;;;;;6.75;6.00;;;;;18.96;61.73;101594.16;5014221;28;49682;-63
2022/05/22 00:21:29;;;;;;;;;5.00;4.75;;;;;18.96;61.83;101599.50;5013627;28;49560;-63
2022/05/22 00:23:55;;;;;;;;;5.00;5.00;;;;;18.97;61.86;101595.94;5013592;28;50465;-64
2022/05/22 00:26:20;;;;;;;;;6.50;6.50;;;;;18.90;61.70;101594.16;5020550;28;49861;-63
2022/05/22 00:28:46;;;;;;;;;7.50;6.00;;;;;18.90;61.94;101582.63;5031291;28;49856;-64
2022/05/22 00:31:11;;;;;;;;;5.00;3.25;;;;;18.93;61.79;101591.53;5014771;28;49759;-64
2022/05/22 00:33:37;;;;;;;;;6.25;6.25;;;;;18.93;61.50;101588.84;5013570;28;49652;-63
2022/05/22 00:36:03;;;;;;;;;5.25;5.00;;;;;18.86;61.64;101579.97;5013571;28;49822;-63
2022/05/22 00:38:29;;;;;;;;;6.25;6.25;;;;;18.92;61.70;101594.19;5013795;28;49831;-65
2022/05/22 00:40:55;;;;;;;;;9.75;7.00;;;;;18.93;61.42;101585.31;5013837;28;49583;-63
2022/05/22 00:43:51;;;;;;;;;6.75;6.25;;;;;18.94;61.63;101579.97;5013467;28;49768;-63
2022/05/22 00:46:19;;;;;;;;;6.00;6.00;;;;;18.89;61.55;101573.75;5027721;28;49707;-63
2022/05/22 00:48:48;;;;;;;;;5.00;5.00;;;;;18.78;62.32;101579.09;5032722;28;49773;-63
2022/05/22 00:51:18;;;;;;;;;6.50;6.00;;;;;18.73;62.46;101559.59;5032678;28;49777;-63
2022/05/22 00:53:53;;;;;;;;;5.50;5.50;;;;;18.69;62.89;101557.81;5032616;28;50250;-63
2022/05/22 00:56:23;;;;;;;;;4.25;4.25;;;;;18.63;63.25;101555.13;5032706;28;49669;-63
2022/05/22 00:58:53;;;;;;;;;7.25;6.25;;;;;18.51;63.63;101544.47;5032822;28;49832;-63
2022/05/22 01:01:19;;;;;;;;;3.25;2.00;;;;;18.58;63.62;101548.91;5032822;28;49765;-63
2022/05/22 01:03:44;;;;;;;;;5.25;4.50;;;;;18.55;63.65;101539.16;5032438;28;49888;-63
2022/05/22 01:06:16;;;;;;;;;5.00;5.00;;;;;18.52;63.73;101527.63;5032385;28;49741;-63
2022/05/22 01:08:42;;;;;;;;;7.50;7.00;;;;;18.44;64.08;101534.75;5032496;28;49874;-63
2022/05/22 01:11:12;;;;;;;;;11.00;8.50;;;;;18.42;64.54;101531.16;5032769;28;49635;-63
2022/05/22 01:13:47;;;;;;;;;6.00;4.00;;;;;18.14;64.71;101485.06;5032250;28;50200;-63
2022/05/22 01:16:13;;;;;;;;;5.00;5.00;;;;;18.33;64.76;101518.75;5032394;28;49742;-64
2022/05/22 01:18:41;;;;;;;;;5.75;5.75;;;;;18.38;64.51;101524.09;5032474;28;49701;-63
2022/05/22 01:21:11;;;;;;;;;3.00;3.00;;;;;18.39;64.68;101533.84;5032395;28;49780;-63
2022/05/22 01:23:37;;;;;;;;;6.75;6.75;;;;;18.36;64.56;101525.88;5034594;28;51442;-63
2022/05/22 01:26:02;;;;;;;;;8.75;8.50;;;;;18.34;64.63;101525.88;5035590;28;49954;-63
2022/05/22 01:28:27;;;;;;;;;8.25;8.25;;;;;18.39;64.60;101525.84;5035930;28;49736;-64
2022/05/22 01:30:53;;;;;;;;;8.50;7.25;;;;;18.37;64.78;101519.66;5036074;28;49803;-63
2022/05/22 01:33:18;;;;;;;;;13.00;11.00;;;;;18.34;64.60;101512.59;5035454;28;50604;-63
2022/05/22 01:35:44;;;;;;;;;17.25;14.50;;;;;18.26;64.74;101517.88;5035354;28;49764;-63
2022/05/22 01:38:09;;;;;;;;;12.25;11.50;;;;;18.20;65.12;101515.19;5035801;28;49619;-63
2022/05/22 01:40:34;;;;;;;;;16.25;15.00;;;;;18.14;65.17;101514.28;5035685;28;49627;-63
2022/05/22 01:43:00;;;;;;;;;20.00;16.50;;;;;18.09;65.65;101516.97;5035410;28;50391;-63
2022/05/22 01:45:26;;;;;;;;;17.75;17.50;;;;;18.07;65.46;101516.06;5035400;28;49662;-65
2022/05/22 01:47:52;;;;;;;;;14.50;14.50;;;;;18.09;65.74;101506.34;5035630;28;49675;-63
2022/05/22 01:50:18;;;;;;;;;18.00;17.25;;;;;18.11;65.62;101501.00;5035509;28;49678;-63
2022/05/22 01:52:44;;;;;;;;;19.25;18.00;;;;;18.09;65.72;101505.44;5028919;28;49646;-63
2022/05/22 01:55:12;;;;;;;;;15.75;14.75;;;;;18.07;65.71;101510.75;5022614;28;49781;-63
2022/05/22 01:57:38;;;;;;;;;14.25;13.50;;;;;18.02;65.90;101499.22;5022803;28;50309;-63
2022/05/22 02:00:06;;;;;;;;;13.50;11.75;;;;;18.12;65.62;101503.66;5016414;28;49915;-64
2022/05/22 02:02:31;;;;;;;;;17.75;14.50;;;;;18.11;65.71;101499.25;5015993;28;49840;-63
2022/05/22 02:04:57;;;;;;;;;20.75;17.50;;;;;18.02;65.82;101485.94;5015866;28;49477;-64
2022/05/22 02:10:07;;;;;;;;;15.00;12.75;;;;;18.08;65.91;101498.38;5029978;28;49847;-64
2022/05/22 02:12:32;;;;;;;;;12.75;10.50;;;;;18.07;65.83;101507.22;5035074;28;49720;-63
2022/05/22 02:14:58;;;;;;;;;9.00;9.00;;;;;18.03;66.00;101512.50;5022167;28;50206;-63
2022/05/22 02:17:23;;;;;;;;;10.75;10.75;;;;;18.03;65.79;101506.31;5015964;28;49715;-64
2022/05/22 02:19:48;;;;;;;;;11.25;11.00;;;;;18.01;66.08;101506.31;4997881;28;49849;-64
2022/05/22 02:22:14;;;;;;;;;11.00;9.00;;;;;18.02;65.81;101505.41;5015640;28;50340;-63
2022/05/22 02:24:39;;;;;;;;;8.25;6.25;;;;;17.88;66.07;101496.56;5015806;28;49671;-63
2022/05/22 02:27:08;;;;;;;;;9.00;9.00;;;;;17.85;66.16;101488.56;5015891;28;49691;-63
2022/05/22 02:29:35;;;;;;;;;9.75;8.25;;;;;17.93;66.21;101516.03;5021309;28;49754;-63
2022/05/22 02:32:01;;;;;;;;;9.00;7.00;;;;;17.95;66.19;101513.38;5034546;28;49732;-63
2022/05/22 02:34:27;;;;;;;;;8.75;7.50;;;;;17.96;66.23;101516.06;5033843;28;49810;-63
2022/05/22 02:36:52;;;;;;;;;8.00;8.00;;;;;17.94;66.04;101512.47;5034395;28;49638;-63
2022/05/22 02:39:20;;;;;;;;;8.00;8.00;;;;;17.93;66.33;101517.78;5034914;28;49570;-63
2022/05/22 02:41:45;;;;;;;;;8.75;8.75;;;;;17.90;66.21;101512.50;5034595;28;50336;-63
2022/05/22 02:44:11;;;;;;;;;12.25;10.75;;;;;17.88;67.01;101523.13;5034681;28;49725;-64
2022/05/22 02:46:37;;;;;;;;;9.50;9.50;;;;;17.79;67.65;101520.44;5034654;28;49659;-63
2022/05/22 02:49:02;;;;;;;;;14.50;13.50;;;;;17.72;67.76;101532.78;5034771;28;49891;-63
2022/05/22 02:51:27;;;;;;;;;11.25;11.25;;;;;17.70;67.80;101531.00;5034029;28;50413;-63
2022/05/22 02:53:54;;;;;;;;;16.00;11.75;;;;;17.69;68.18;101532.78;5034493;28;49612;-63
2022/05/22 02:56:23;;;;;;;;;17.00;13.00;;;;;17.72;68.05;101534.56;5033990;28;49878;-63
2022/05/22 02:58:49;;;;;;;;;12.50;12.50;;;;;17.75;68.01;101523.94;5034608;28;49779;-63
2022/05/22 03:01:14;;;;;;;;;14.00;14.00;;;;;17.73;67.71;101521.28;5034305;28;50627;-63
2022/05/22 03:03:39;;;;;;;;;10.75;10.00;;;;;17.72;67.85;101524.81;5034316;28;49826;-63
2022/05/22 03:08:48;;;;;;;;;9.00;9.00;;;;;17.68;67.64;101520.34;5034663;28;49764;-63
2022/05/22 03:11:14;;;;;;;;;10.75;9.75;;;;;17.62;67.37;101515.00;5034079;28;49739;-64
2022/05/22 03:13:39;;;;;;;;;5.25;5.25;;;;;17.66;67.53;101513.25;5034250;28;49590;-63
2022/05/22 03:16:05;;;;;;;;;9.00;7.00;;;;;17.66;67.51;101518.56;5034224;28;49729;-63
2022/05/22 03:18:30;;;;;;;;;7.50;6.75;;;;;17.56;67.60;101488.44;5034134;28;49761;-63
2022/05/22 03:20:56;;;;;;;;;12.00;6.75;;;;;17.64;67.61;101501.75;5033594;28;49811;-63
2022/05/22 03:23:22;;;;;;;;;7.00;7.00;;;;;17.62;67.72;101501.75;5034024;28;49984;-63
2022/05/22 03:25:47;;;;;;;;;7.75;6.25;;;;;17.60;67.55;101490.22;5034091;28;49890;-63
2022/05/22 03:28:13;;;;;;;;;8.00;8.00;;;;;17.62;67.60;101491.13;5034056;28;49911;-64
2022/05/22 03:30:39;;;;;;;;;9.25;6.75;;;;;17.58;67.40;101477.84;5033685;28;50350;-64
2022/05/22 03:33:04;;;;;;;;;7.75;7.75;;;;;17.51;67.99;101474.28;5033612;28;49881;-63
2022/05/22 03:35:30;;;;;;;;;7.75;7.00;;;;;17.54;67.90;101481.34;5027291;28;49777;-63
2022/05/22 03:37:55;;;;;;;;;7.75;7.25;;;;;17.49;68.05;101461.88;5034086;28;49619;-63
2022/05/22 03:40:21;;;;;;;;;7.25;7.00;;;;;17.54;67.94;101476.03;5033582;28;50643;-63
2022/05/22 03:42:47;;;;;;;;;7.25;6.75;;;;;17.41;67.98;101451.22;5033696;28;49587;-62
2022/05/22 03:45:12;;;;;;;;;7.50;7.50;;;;;17.54;68.24;101470.72;5033601;28;49868;-62
2022/05/22 03:47:40;;;;;;;;;8.75;8.75;;;;;17.43;68.24;101460.06;5033847;28;49682;-63
2022/05/22 03:50:08;;;;;;;;;8.75;8.75;;;;;17.49;68.32;101472.50;5033296;28;50704;-63
2022/05/22 03:52:36;;;;;;;;;10.00;7.50;;;;;17.48;68.29;101462.75;5033480;28;49907;-63
2022/05/22 03:55:02;;;;;;;;;8.50;7.50;;;;;17.51;68.77;101471.63;5033562;28;49781;-63
2022/05/22 03:57:28;;;;;;;;;6.75;6.00;;;;;17.42;68.56;101453.00;5033208;28;49854;-63
2022/05/22 03:59:53;;;;;;;;;9.00;9.00;;;;;17.55;68.78;101469.84;5033212;28;50501;-63
2022/05/22 04:02:18;;;;;;;;;6.75;6.50;;;;;17.43;68.30;101438.84;5015491;28;49764;-63
2022/05/22 04:04:44;;;;;;;;;5.25;5.25;;;;;17.59;68.67;101455.72;5032857;28;50082;-63
2022/05/22 04:07:09;;;;;;;;;7.50;7.50;;;;;17.49;68.16;101440.66;5033731;28;49786;-63
2022/05/22 04:09:34;;;;;;;;;9.00;7.00;;;;;17.52;68.19;101461.88;5030757;28;50395;-63
2022/05/22 04:12:04;;;;;;;;;6.75;6.75;;;;;17.48;68.05;101454.81;5014385;28;49745;-64
2022/05/22 04:14:30;;;;;;;;;7.25;7.25;;;;;17.52;68.45;101446.84;5014256;28;49847;-65
2022/05/22 04:16:55;;;;;;;;;6.75;6.75;;;;;17.55;68.00;101436.22;5014168;28;49726;-64
2022/05/22 04:19:20;;;;;;;;;10.75;10.25;;;;;17.38;67.88;101430.00;4996110;28;52263;-63
2022/05/22 04:21:46;;;;;;;;;9.75;9.25;;;;;17.46;68.08;101436.19;5013910;28;49825;-63
2022/05/22 04:26:55;;;;;;;;;9.50;8.00;;;;;17.54;67.81;101446.84;5014319;28;49704;-63
2022/05/22 04:29:20;;;;;;;;;11.25;10.50;;;;;17.50;67.81;101440.66;5013679;28;49614;-64
2022/05/22 04:31:46;;;;;;;;;8.50;8.00;;;;;17.50;67.64;101440.66;5013909;28;49793;-64
2022/05/22 04:34:11;;;;;;;;;8.25;7.75;;;;;17.54;67.60;101446.84;5013998;28;49851;-63
2022/05/22 04:36:36;;;;;;;;;8.50;8.50;;;;;17.58;67.89;101445.97;5013904;28;49836;-63
2022/05/22 04:39:02;;;;;;;;;9.25;7.25;;;;;17.48;67.61;101438.88;5013767;28;49614;-63
2022/05/22 04:41:28;;;;;;;;;9.75;8.75;;;;;17.54;67.53;101444.19;4995864;28;49805;-65
2022/05/22 04:43:53;;;;;;;;;8.25;6.50;;;;;17.49;67.49;101420.28;5013674;28;49833;-64
2022/05/22 04:46:19;;;;;;;;;9.00;8.50;;;;;17.62;67.43;101445.09;5014127;28;49878;-64
2022/05/22 04:48:44;;;;;;;;;8.25;8.25;;;;;17.56;67.36;101445.94;5022438;28;50846;-64
2022/05/22 04:51:09;;;;;;;;;9.50;8.50;;;;;17.41;67.60;101438.84;5015201;28;49679;-63
2022/05/22 04:53:35;;;;;;;;;10.00;7.75;;;;;17.60;67.46;101458.38;5018005;28;49843;-63
2022/05/22 04:56:01;;;;;;;;;10.50;10.50;;;;;17.65;67.15;101461.03;5026778;28;49751;-69
2022/05/22 04:58:26;;;;;;;;;7.00;7.00;;;;;17.61;67.00;101448.63;5012729;28;50173;-66
2022/05/22 05:00:52;;;;;;;;;9.00;9.00;;;;;17.72;67.26;101469.06;5012617;28;49864;-65
2022/05/22 05:03:18;;;;;;;;;8.50;7.25;;;;;17.74;66.79;101461.97;5013673;28;49966;-68
2022/05/22 05:05:52;;;;;;;;;8.25;8.00;;;;;17.77;67.05;101465.53;5014044;28;49848;-68
2022/05/22 05:08:17;;;;;;;;;10.25;10.25;;;;;17.88;66.57;101470.00;5014269;28;50590;-69
2022/05/22 05:10:44;;;;;;;;;9.75;9.75;;;;;17.90;66.55;101465.56;5021129;28;49852;-65
2022/05/22 05:13:10;;;;;;;;;9.50;9.50;;;;;17.86;66.63;101471.75;5013545;28;49784;-65
2022/05/22 05:15:35;;;;;;;;;10.25;8.75;;;;;17.86;66.65;101463.78;5017729;28;49864;-69
2022/05/22 05:18:01;;;;;;;;;6.75;6.75;;;;;17.86;66.99;101457.59;5017481;28;49793;-68
2022/05/22 05:20:26;;;;;;;;;10.00;10.00;;;;;17.86;66.45;101454.94;5013261;28;49886;-69
2022/05/22 05:22:52;;;;;;;;;13.00;10.50;;;;;17.92;66.10;101452.28;5013322;28;49667;-69
2022/05/22 05:25:18;;;;;;;;;9.25;8.00;;;;;18.08;66.07;101466.47;5013481;28;49696;-67
2022/05/22 05:27:43;;;;;;;;;10.75;9.50;;;;;18.13;65.63;101456.72;5013079;28;49675;-68
2022/05/22 05:30:10;;;;;;;;;8.50;8.50;;;;;18.20;65.76;101470.03;4995527;28;49673;-69
2022/05/22 05:32:35;;;;;;;;;7.00;7.00;;;;;18.22;65.18;101470.91;5013159;28;49796;-69
2022/05/22 05:35:05;;;;;;;;;10.00;9.00;;;;;18.26;64.89;101467.38;5013176;28;49884;-66
2022/05/22 05:37:30;;;;;;;;;7.25;7.25;;;;;18.23;64.78;101454.06;5012745;28;50624;-68
2022/05/22 05:39:56;;;;;;;;;9.00;7.50;;;;;18.38;64.86;101470.91;5012822;28;49528;-70
2022/05/22 05:42:23;;;;;;;;;8.25;8.25;;;;;18.40;64.85;101472.69;5013089;28;49847;-63
2022/05/22 05:44:49;;;;;;;;;8.25;8.25;;;;;18.52;64.34;101480.66;5013427;28;50306;-67
2022/05/22 05:47:15;;;;;;;;;7.25;7.00;;;;;18.59;64.09;101478.88;5012821;28;49686;-62
2022/05/22 05:49:41;;;;;;;;;10.25;9.00;;;;;18.68;63.80;101470.94;5013071;28;49752;-63
2022/05/22 05:52:07;;;;;;;;;12.25;8.00;;;;;18.76;63.59;101477.13;4994958;28;49773;-63
2022/05/22 05:54:32;;;;;;;;;8.75;7.50;;;;;18.85;62.93;101468.25;5019813;28;49805;-63
2022/05/22 05:56:58;;;;;;;;;8.75;8.00;;;;;18.85;62.88;101462.94;5012608;28;51100;-63
2022/05/22 05:59:25;;;;;;;;;5.50;4.75;;;;;18.82;62.64;101453.19;5019318;28;49675;-64
2022/05/22 06:01:52;;;;;;;;;6.50;6.50;;;;;18.73;62.06;101421.28;5018844;28;49757;-71
2022/05/22 06:04:18;;;;;;;;;12.50;10.50;;;;;18.74;62.06;101415.09;5012713;28;49813;-66
2022/05/22 06:06:43;;;;;;;;;7.75;7.00;;;;;18.91;61.80;101435.41;5012324;28;49587;-65
2022/05/22 06:09:09;;;;;;;;;8.25;8.25;;;;;19.20;61.54;101453.94;5011452;28;49738;-66
2022/05/22 06:11:34;;;;;;;;;12.25;10.25;;;;;19.08;61.22;101407.88;5017336;28;50119;-66
2022/05/22 06:14:00;;;;;;;;;7.25;7.25;;;;;18.91;61.02;101371.56;5016301;28;49697;-66
2022/05/22 06:16:26;;;;;;;;;11.00;9.50;;;;;19.08;60.92;101370.59;5015995;28;50531;-65
2022/05/22 06:18:52;;;;;;;;;12.00;11.00;;;;;19.43;60.70;101421.03;5016387;28;49873;-65
2022/05/22 06:21:19;;;;;;;;;10.00;9.00;;;;;19.31;60.58;101381.16;5018586;28;49810;-63
2022/05/22 06:23:45;;;;;;;;;10.00;8.25;;;;;19.60;60.42;101415.66;5018372;28;49869;-63
2022/05/22 06:26:12;;;;;;;;;8.25;8.25;;;;;19.50;60.34;101399.69;5003410;28;52329;-64
2022/05/22 06:28:38;;;;;;;;;10.25;8.75;;;;;19.69;59.45;101420.03;5020941;28;49693;-64
2022/05/22 06:31:05;;;;;;;;;11.75;11.75;;;;;19.64;59.50;101397.84;5015788;28;49706;-66
2022/05/22 06:33:31;;;;;;;;;11.00;11.00;;;;;19.71;59.38;101380.94;5015938;28;49709;-66
2022/05/22 06:35:57;;;;;;;;;9.75;9.75;;;;;19.71;58.30;101356.97;5015335;28;50016;-66
2022/05/22 06:41:09;;;;;;;;;11.00;9.50;;;;;19.11;58.55;101215.38;5015401;28;49798;-63
2022/05/22 06:43:35;;;;;;;;;12.75;11.75;;;;;20.08;58.51;101380.69;5015675;28;49644;-62
2022/05/22 06:46:01;;;;;;;;;10.75;8.25;;;;;20.02;58.40;101344.28;5015286;28;49793;-63
2022/05/22 06:48:27;;;;;;;;;10.00;10.00;;;;;20.14;58.03;101337.94;5020513;28;49553;-62
2022/05/22 06:50:52;;;;;;;;;10.00;10.00;;;;;20.31;57.66;101354.69;5021022;28;49611;-63
2022/05/22 06:53:18;;;;;;;;;10.50;9.75;;;;;20.22;57.26;101326.31;5018018;28;49726;-70
2022/05/22 06:55:43;;;;;;;;;10.50;8.25;;;;;20.38;57.03;101366.19;5018610;28;50484;-63
2022/05/22 06:58:09;;;;;;;;;8.00;7.25;;;;;20.12;56.80;101303.31;5026378;28;49708;-62
2022/05/22 07:00:34;;;;;;;;;7.50;7.50;;;;;20.55;56.59;101370.44;5021713;28;49892;-68
2022/05/22 07:03:00;;;;;;;;;8.00;7.75;;;;;20.31;56.05;101306.69;5019465;28;49680;-68
2022/05/22 07:05:26;;;;;;;;;9.00;8.75;;;;;20.52;55.78;101337.59;5015835;28;50360;-68
2022/05/22 07:07:52;;;;;;;;;7.75;6.75;;;;;20.13;55.39;101254.44;5031164;28;49902;-69
2022/05/22 07:10:17;;;;;;;;;7.50;7.50;;;;;20.42;54.49;101301.22;5026341;28;49900;-69
2022/05/22 07:12:44;;;;;;;;;8.25;8.25;;;;;20.91;54.43;101362.94;5020477;28;49907;-72
2022/05/22 07:15:10;;;;;;;;;8.00;8.00;;;;;20.49;54.25;101270.97;4997039;28;52528;-67
2022/05/22 07:17:37;;;;;;;;;6.25;6.25;;;;;20.92;53.47;101335.34;5014761;28;49896;-67
2022/05/22 07:20:04;;;;;;;;;5.75;5.75;;;;;21.23;53.08;101351.84;5014533;28;49721;-67
2022/05/22 07:22:30;;;;;;;;;4.75;4.50;;;;;21.28;52.22;101335.78;5013888;28;49849;-67
2022/05/22 07:24:55;;;;;;;;;8.00;6.00;;;;;21.51;51.83;101347.00;5024388;28;49733;-67
2022/05/22 07:27:21;;;;;;;;;9.00;7.00;;;;;21.37;51.39;101311.63;5021294;28;49695;-66
2022/05/22 07:29:47;;;;;;;;;6.00;6.00;;;;;21.31;51.52;101338.41;5027912;28;49756;-67
2022/05/22 07:32:13;;;;;;;;;7.00;7.00;;;;;21.08;51.87;101344.91;5019576;28;49778;-68
2022/05/22 07:34:39;;;;;;;;;6.75;5.75;;;;;21.35;51.91;101373.06;5025024;28;49703;-66
2022/05/22 07:37:08;;;;;;;;;4.00;4.00;;;;;21.37;51.63;101360.56;5016138;28;49768;-67
2022/05/22 07:39:34;;;;;;;;;6.75;5.25;;;;;21.38;51.71;101364.13;5016724;28;49729;-66
2022/05/22 07:41:59;;;;;;;;;7.75;6.75;;;;;21.39;51.05;101340.06;5020467;28;50037;-68
2022/05/22 07:44:25;;;;;;;;;7.75;6.00;;;;;21.46;50.89;101361.34;5016662;28;49786;-62
2022/05/22 07:46:50;;;;;;;;;7.00;7.00;;;;;21.39;50.96;101352.53;5014502;28;49697;-62
2022/05/22 07:52:14;;;;;;;;;8.00;7.00;;;;;21.49;50.78;101330.13;4996653;28;49736;-63
2022/05/22 07:54:40;;;;;;;;;6.00;6.00;;;;;21.29;50.45;101279.69;5018712;28;49738;-63
2022/05/22 07:57:07;;;;;;;;;6.50;6.50;;;;;21.70;50.47;101329.78;5020704;28;49973;-63
2022/05/22 07:59:37;;;;;;;;;7.00;7.00;;;;;21.51;50.17;101266.88;5016803;28;49876;-73
2022/05/22 08:02:07;;;;;;;;;6.50;6.50;;;;;22.00;50.62;101320.41;5014394;28;49678;-69
2022/05/22 08:04:32;;;;;;;;;5.00;5.00;;;;;22.06;49.33;101298.00;5027509;28;50743;-66
2022/05/22 08:06:57;;;;;;;;;4.75;4.75;;;;;22.20;49.64;101297.78;5020504;28;49734;-65
2022/05/22 08:09:23;;;;;;;;;5.00;5.00;;;;;21.95;48.83;101209.09;4998377;28;49865;-71
2022/05/22 08:11:49;;;;;;;;;7.75;5.50;;;;;22.46;48.81;101281.22;5012960;28;49595;-64
2022/05/22 08:14:15;;;;;;;;;4.75;4.75;;;;;22.40;48.53;101262.66;5013995;28;50517;-65
2022/05/22 08:16:42;;;;;;;;;7.50;6.25;;;;;22.50;48.60;101253.50;5016703;28;49607;-66
2022/05/22 08:19:11;;;;;;;;;6.50;6.25;;;;;22.78;48.02;101270.75;5013187;28;49819;-68
2022/05/22 08:21:36;;;;;;;;;4.00;4.00;;;;;22.83;47.47;101244.75;5012824;28;49645;-66
2022/05/22 08:24:02;;;;;;;;;4.00;2.00;;;;;23.10;46.43;101261.16;5013616;28;50279;-67
2022/05/22 08:26:28;;;;;;;;;5.25;4.50;;;;;23.15;46.08;101269.94;5013790;28;49844;-69
2022/05/22 08:28:54;;;;;;;;;5.25;5.00;;;;;23.22;46.25;101263.53;5013785;28;49764;-64
2022/05/22 08:31:20;;;;;;;;;3.25;3.25;;;;;23.20;46.12;101259.13;5026828;28;49717;-66
2022/05/22 08:33:45;;;;;;;;;5.25;3.00;;;;;23.29;45.90;101257.13;5031638;28;49690;-65
2022/05/22 08:36:11;;;;;;;;;3.25;3.25;;;;;23.43;45.54;101263.00;5032734;28;49630;-65
2022/05/22 08:38:36;;;;;;;;;5.00;5.00;;;;;23.51;44.74;101267.31;5032732;28;49926;-65
2022/05/22 08:41:24;;;;;;;;;5.50;4.25;;;;;23.61;44.66;101268.88;5032914;28;49665;-66
2022/05/22 08:44:00;;;;;;;;;5.00;4.00;;;;;23.69;44.29;101254.38;5032529;28;51085;-66
2022/05/22 08:46:46;;;;;;;;;7.50;4.50;;;;;23.95;43.70;101272.47;5032549;28;49642;-66
2022/05/22 08:50:06;;;;;;;;;4.50;4.25;;;;;24.21;43.61;101270.88;5030794;28;49808;-65
2022/05/22 08:52:40;;;;;;;;;4.50;4.50;;;;;24.41;43.19;101247.06;5000095;28;50035;-65
2022/05/22 08:55:20;;;;;;;;;5.75;4.75;;;;;24.60;43.25;101219.69;5032328;28;49949;-66
2022/05/22 09:01:02;;;;;;;;;3.00;3.00;;;;;25.08;41.43;101252.25;5032605;28;49713;-66
2022/05/22 09:03:40;;;;;;;;;2.75;2.75;;;;;25.06;40.88;101230.81;5032656;28;49717;-65
2022/05/22 09:06:06;;;;;;;;;4.00;4.00;;;;;25.34;40.21;101246.94;5032272;28;51015;-65
2022/05/22 09:08:39;;;;;;;;;6.25;3.50;;;;;25.38;40.53;101247.69;5032227;28;49879;-65
2022/05/22 09:11:16;;;;;;;;;7.00;5.25;;;;;25.63;39.82;101232.50;5032609;28;49881;-66
2022/05/22 09:14:08;;;;;;;;;2.25;2.25;;;;;25.68;39.58;101227.88;5032719;28;49876;-66
2022/05/22 09:16:51;;;;;;;;;4.00;4.00;;;;;25.56;39.34;101216.63;5012954;28;50711;-67
2022/05/22 09:19:37;;;;;;;;;3.75;3.75;;;;;25.73;38.94;101222.34;5013237;28;49844;-65
2022/05/22 09:22:28;;;;;;;;;5.00;3.75;;;;;26.07;39.22;101227.44;5013016;28;49722;-66
2022/05/22 09:25:21;;;;;;;;;4.75;4.25;;;;;26.09;37.94;101217.50;5027880;28;49801;-68
2022/05/22 09:28:12;;;;;;;;;3.50;3.50;;;;;26.20;38.87;101207.22;5014285;28;52222;-65
2022/05/22 09:31:13;;;;;;;;;6.50;4.75;;;;;26.44;36.88;101213.53;5032069;28;49732;-72
2022/05/22 09:33:50;;;;;;;;;5.00;5.00;;;;;26.44;36.63;101200.06;5032011;28;49740;-68
2022/05/22 09:36:49;;;;;;;;;2.75;2.75;;;;;26.48;35.74;101192.75;5031919;28;49950;-67
2022/05/22 09:39:39;;;;;;;;;4.00;4.00;;;;;26.20;35.06;101166.84;5031672;28;50451;-65
2022/05/22 09:42:43;;;;;;;;;3.00;3.00;;;;;26.14;36.46;101166.19;5031798;28;49814;-66
2022/05/22 09:45:27;;;;;;;;;29.00;25.00;;;;;26.17;35.23;101177.72;5035044;28;49872;-69
2022/05/22 09:48:10;;;;;;;;;974.83;873.83;;;;;25.93;35.62;101149.91;5033602;28;50069;-72
2022/05/22 09:50:51;;;;;;;;;956.50;851.75;;;;;25.92;35.26;101136.50;5034676;28;50803;-70
2022/05/22 09:53:43;;;;;;;;;53.00;43.75;;;;;26.18;35.91;101162.47;5017575;28;49788;-76
2022/05/22 09:56:36;;;;;;;;;54.00;45.75;;;;;26.25;35.74;101147.84;5035282;28;49921;-76
2022/05/22 09:59:38;;;;;;;;;9.00;9.00;;;;;26.16;35.30;101141.00;5035499;28;49965;-74
2022/05/22 10:02:17;;;;;;;;;15.00;12.00;;;;;24.37;35.04;100885.88;5034736;28;50734;-74
2022/05/22 10:05:13;;;;;;;;;61.25;49.00;;;;;25.84;34.89;101133.22;5034920;28;49736;-74
2022/05/22 10:08:26;;;;;;;;;7.50;7.50;;;;;25.75;35.37;101093.22;5034970;28;49795;-74
2022/05/22 10:11:11;;;;;;;;;17.75;17.50;;;;;25.23;34.90;100985.78;4988762;28;49922;-73
2022/05/22 10:14:14;;;;;;;;;5.00;5.00;;;;;26.10;34.86;101119.69;5025578;28;51076;-80
2022/05/22 10:17:14;;;;;;;;;3.00;3.00;;;;;25.71;35.07;101048.56;5019224;28;49902;-76
2022/05/22 10:20:21;;;;;;;;;3.00;3.00;;;;;25.85;35.05;101062.38;5027046;28;49768;-75
2022/05/22 10:22:55;;;;;;;;;5.75;5.75;;;;;26.05;34.23;101115.41;4953326;28;49893;-74
2022/05/22 10:25:38;;;;;;;;;102.50;97.50;;;;;25.98;33.74;101119.28;5021903;28;50581;-73
2022/05/22 10:28:13;;;;;;;;;711.00;660.40;;;;;25.64;34.09;101081.00;5034706;28;49778;-74
2022/05/22 10:30:49;;;;;;;;;242.25;221.75;;;;;25.64;34.46;101070.25;5027865;28;49709;-76
2022/05/22 10:33:35;;;;;;;;;225.50;206.50;;;;;25.72;34.04;101078.09;5021323;28;50047;-73
2022/05/22 10:36:11;;;;;;;;;156.75;144.50;;;;;24.98;34.73;100990.22;5037954;28;49715;-77
2022/05/22 10:38:43;;;;;;;;;157.50;144.25;;;;;25.48;35.30;101050.28;5035786;28;49824;-73
2022/05/22 10:44:13;;;;;;;;;85.33;80.00;;;;;25.33;35.54;101008.69;5015942;28;49659;-78
2022/05/22 10:46:50;;;;;;;;;41.75;34.75;;;;;25.41;35.39;101043.34;5015635;28;51005;-82
2022/05/22 10:49:17;;;;;;;;;75.00;60.67;;;;;25.46;35.75;101044.06;5028396;28;49706;-76
2022/05/22 10:51:54;;;;;;;;;53.00;42.00;;;;;25.33;35.25;101015.88;5026426;28;49732;-81
2022/05/22 10:54:29;;;;;;;;;245.60;225.20;;;;;25.37;35.28;101025.56;5029787;28;49890;-79
2022/05/22 10:57:05;;;;;;;;;90.33;82.67;;;;;24.71;35.60;100928.53;5018904;28;50524;-81
2022/05/22 10:59:31;;;;;;;;;225.00;206.00;;;;;25.30;35.20;101032.13;5020012;28;49860;-76
2022/05/22 11:02:00;;;;;;;;;530.00;469.75;;;;;25.16;35.77;101031.72;5007269;28;50566;-75
2022/05/22 11:04:39;;;;;;;;;252.80;238.40;;;;;25.14;36.34;101020.16;5016201;28;49730;-73
2022/05/22 11:07:06;;;;;;;;;82.00;75.67;;;;;25.15;36.46;101046.97;5015148;28;50735;-78
2022/05/22 11:09:35;;;;;;;;;64.25;51.75;;;;;25.19;36.59;101054.00;5032661;28;49717;-76
2022/05/22 11:12:09;;;;;;;;;139.00;135.25;;;;;24.53;36.55;100945.25;5024348;28;49879;-75
2022/05/22 11:14:35;;;;;;;;;49.00;41.25;;;;;25.04;36.92;101017.78;5015542;28;49741;-78
2022/05/22 11:17:20;;;;;;;;;90.50;85.25;;;;;25.29;36.34;101022.31;5018920;28;49657;-74
2022/05/22 11:19:49;;;;;;;;;82.33;76.33;;;;;25.18;36.59;101009.22;5028599;28;49803;-71
2022/05/22 11:22:58;;;;;;;;;188.75;175.50;;;;;25.26;36.51;101031.34;5033960;28;49834;-74
2022/05/22 11:25:29;;;;;;;;;32.75;28.75;;;;;25.33;36.73;101021.25;5034139;28;49763;-72
2022/05/22 11:28:11;;;;;;;;;52.75;45.00;;;;;25.42;36.53;101030.78;5016127;28;52101;-73
2022/05/22 11:30:42;;;;;;;;;81.00;72.67;;;;;25.50;37.04;101026.91;5029762;28;50472;-71
2022/05/22 11:33:25;;;;;;;;;75.75;65.25;;;;;25.55;37.28;101019.53;5034116;28;49725;-75
2022/05/22 11:36:00;;;;;;;;;47.00;36.25;;;;;25.46;37.60;101019.84;5034085;28;49790;-70
2022/05/22 11:38:56;;;;;;;;;9.00;9.00;;;;;25.29;38.36;101025.00;5030643;28;50678;-76
2022/05/22 11:41:31;;;;;;;;;5.25;5.25;;;;;25.39;38.52;101032.66;5029037;28;49557;-73
2022/05/22 11:44:27;;;;;;;;;7.50;7.25;;;;;25.35;38.30;101033.69;5017599;28;49572;-72
2022/05/22 11:47:18;;;;;;;;;6.00;5.25;;;;;25.43;37.70;101043.28;5019566;28;49710;-72
2022/05/22 11:49:57;;;;;;;;;4.25;3.75;;;;;25.35;37.24;101048.94;5014349;28;49790;-69
2022/05/22 11:53:01;;;;;;;;;4.75;4.75;;;;;25.46;39.04;101052.13;5014294;28;49816;-69
2022/05/22 11:55:36;;;;;;;;;4.00;3.50;;;;;25.53;37.86;101036.66;4996743;28;49858;-74